Michigan Logo

Saline, MI Single Family Real Estate Listings

53 Total Real Estate Listings * Click on table heading to sort
Date Posted Property Type Style Address Price Living Area Lot Size Price/Sq Ft.
2018-10-17 Single Family 102 Lewis Street Saline, MI 48176 $249,900 1,751 sq. ft. 6,098 sq. ft. $143
2018-10-14 Single Family Contemporary 607 Castlebury Circle Saline, MI 48176 $415,000 2,414 sq. ft. 8,276 sq. ft. $172
2018-10-06 Single Family Cape Cod 342 Castlebury Drive Saline, MI 48176 $369,900 1,988 sq. ft. 10,890 sq. ft. $186
2018-10-05 Single Family 190 Circle Court Saline, MI 48176 $199,900 1,168 sq. ft. 10,019 sq. ft. $171
2018-10-02 Single Family Colonial 3443 Oak Park Drive Saline, MI 48176 $620,000 3,143 sq. ft. 48,352 sq. ft. $197
2018-09-27 Single Family 801 Knollwood Court Saline, MI 48176 $189,900 1,248 sq. ft. 16,117 sq. ft. $152
2018-09-26 Single Family 2308 Chestnut Saline, MI 48176 $315,000 2,000 sq. ft. 8,712 sq. ft. $158
2018-09-25 Single Family 543 Lancaster Court Saline, MI 48176 $299,900 1,171 sq. ft. $256
2018-09-20 Single Family 4453 Clara Louise Court Saline, MI 48176 $679,000 2,934 sq. ft. 45,738 sq. ft. $231
2018-09-20 Single Family 341 Marian Court Saline, MI 48176 $199,000 984 sq. ft. 6,970 sq. ft. $202
2018-09-19 Single Family 1667 Wildwood Trail Saline, MI 48176 $379,900 2,020 sq. ft. 15,246 sq. ft. $188
2018-09-13 Single Family 102 Owen Place Saline, MI 48176 $229,000 975 sq. ft. 8,712 sq. ft. $235
2018-09-13 Single Family Colonial 5525 Willow Road Saline, MI 48176 $798,000 4,917 sq. ft. 487,001 sq. ft. $162
2018-09-10 Single Family 1025 Heritage Drive Saline, MI 48176 $259,900 1,248 sq. ft. $208
2018-08-31 Single Family Colonial 617 Huntington Drive Saline, MI 48176 $506,210 3,337 sq. ft. $152
2018-08-28 Single Family 344 Woodland Drive Saline, MI 48176 $335,000 1,794 sq. ft. $187
2018-08-22 Single Family 1518 Maplewood Drive Saline, MI 48176 $285,000 1,256 sq. ft. 4,792 sq. ft. $227
2018-08-21 Single Family 2503 Riversedge Drive Saline, MI 48176 $179,900 1,260 sq. ft. $143
2018-08-18 Single Family 210 Wheeler Court Saline, MI 48176 $235,000 1,056 sq. ft. 41,382 sq. ft. $223
2018-08-16 Single Family 409 Spring Street Saline, MI 48176 $165,000 728 sq. ft. 6,970 sq. ft. $227
2018-08-16 Single Family 271 Nichols Drive Saline, MI 48176 $255,000 2,216 sq. ft. 11,326 sq. ft. $115
2018-08-12 Single Family Colonial 3469 Oak Park Drive Saline, MI 48176 $499,500 3,755 sq. ft. 52,708 sq. ft. $133
2018-08-10 Single Family 225 Monroe Street Saline, MI 48176 $225,000 1,416 sq. ft. 12,632 sq. ft. $159
2018-08-09 Single Family 524 Mills Road Saline, MI 48176 $249,000 1,566 sq. ft. 8,276 sq. ft. $159
2018-08-08 Single Family Contemporary 595 Rosebud Court Saline, MI 48176 $477,900 2,665 sq. ft. 19,166 sq. ft. $179
2018-08-07 Single Family 2376 Wildwood Trail Saline, MI 48176 $359,900 1,998 sq. ft. 12,197 sq. ft. $180
2018-08-01 Single Family 367 Rosebud Lane Saline, MI 48176 $399,900 2,422 sq. ft. 12,632 sq. ft. $165
2018-07-30 Single Family 6517 Campbell Saline, MI 48176 $350,000 2,223 sq. ft. $157
2018-07-27 Single Family 239 Highland Drive Saline, MI 48176 $319,900 1,870 sq. ft. 42,689 sq. ft. $171
2018-07-25 Single Family 3950 Hack Road Saline, MI 49229 $395,000 2,400 sq. ft. 304,920 sq. ft. $165
2018-07-18 Single Family 548 Old Creek Drive Saline, MI 48176 $235,000 1,640 sq. ft. 9,148 sq. ft. $143
2018-07-18 Single Family Colonial 570 Huntington Drive Saline, MI 48176 $484,740 3,363 sq. ft. $144
2018-07-17 Single Family 418 Woodland Drive Saline, MI 48176 $325,000 1,794 sq. ft. $181
2018-07-10 Single Family 286 Lawson Street Saline, MI 48176 $209,900 1,107 sq. ft. 10,019 sq. ft. $190
2018-07-09 Single Family 217 Detroit Street Saline, MI 48176 $269,900 1,827 sq. ft. 16,117 sq. ft. $148
2018-07-05 Single Family Colonial 3363 Brassow Road Saline, MI 48176 $499,900 3,013 sq. ft. 44,867 sq. ft. $166
2018-06-28 Single Family 4 Arbor Lane Saline, MI 48176 $525,000 2,500 sq. ft. 16,117 sq. ft. $210
2018-06-28 Single Family 397 Arlington Drive Saline, MI 48176 $450,000 2,300 sq. ft. 20,038 sq. ft. $196
2018-06-28 Single Family 1 Arbor Lane Saline, MI 48176 $475,000 2,100 sq. ft. 21,780 sq. ft. $226
2018-06-28 Single Family 6 Arbor Lane Saline, MI 48176 $645,000 3,102 sq. ft. 16,553 sq. ft. $208
2018-06-28 Single Family 310 Aberdeen Court Saline, MI 48176 $365,000 2,244 sq. ft. 14,375 sq. ft. $163
2018-06-27 Single Family 3 Arbor Lane Saline, MI 48176 $550,000 2,485 sq. ft. 16,117 sq. ft. $221
2018-06-22 Single Family Colonial 585 Huntington Drive Saline, MI 48176 $432,990 3,169 sq. ft. $137
2018-06-15 Single Family Colonial 504 Arlington Drive Saline, MI 48176 $472,230 3,277 sq. ft. $144
2018-06-05 Single Family 846 Arboretum Saline, MI 48176 $529,900 3,941 sq. ft. 21,780 sq. ft. $134
2018-05-25 Single Family 426 Amherst Circle Saline, MI 48176 $475,000 2,439 sq. ft. 20,038 sq. ft. $195
2018-05-14 Single Family 583 Amherst Saline, MI 48176 $449,999 3,057 sq. ft. 20,038 sq. ft. $147
2018-05-06 Single Family 2 Arbor Lane Saline, MI 48176 $500,000 2,400 sq. ft. 16,117 sq. ft. $208
2018-04-26 Single Family 5 Arbor Lane Saline, MI 48176 $575,000 2,300 sq. ft. 21,780 sq. ft. $250
2018-04-25 Single Family 3950 Hack Road Saline, MI 49229 $495,000 2,400 sq. ft. 1,742,400 sq. ft. $206
2018-04-19 Single Family 115 Maple Road Saline, MI 48176 $450,000 900 sq. ft. 33,977 sq. ft. $500
2018-04-10 Single Family Colonial 433 Huntington Drive Saline, MI 48176 $431,140 2,722 sq. ft. $158
2018-03-01 Single Family 3404 Oak Park Drive Saline, MI 48176 $769,900 3,791 sq. ft. 84,506 sq. ft. $203